sensor_id;sensor_type;location;lat;lon;timestamp;temperature;humidity
44117;DHT22;29781;49.480;8.512;2023-01-19T00:00:14;-0.20;99.90
44117;DHT22;29781;49.480;8.512;2023-01-19T00:02:40;-0.20;99.90
44117;DHT22;29781;49.480;8.512;2023-01-19T00:05:07;-0.10;99.90
44117;DHT22;29781;49.480;8.512;2023-01-19T00:07:33;-0.10;99.90
44117;DHT22;29781;49.480;8.512;2023-01-19T00:09:58;0.00;99.90
44117;DHT22;29781;49.480;8.512;2023-01-19T00:12:24;0.10;99.90
44117;DHT22;29781;49.480;8.512;2023-01-19T00:14:50;0.10;99.90
44117;DHT22;29781;49.480;8.512;2023-01-19T00:17:15;0.10;99.90
44117;DHT22;29781;49.480;8.512;2023-01-19T00:19:41;0.00;99.90
44117;DHT22;29781;49.480;8.512;2023-01-19T00:22:06;-0.10;99.90
44117;DHT22;29781;49.480;8.512;2023-01-19T00:24:32;-0.30;99.90
44117;DHT22;29781;49.480;8.512;2023-01-19T00:26:57;-0.50;99.90
44117;DHT22;29781;49.480;8.512;2023-01-19T00:29:23;-0.60;99.90
44117;DHT22;29781;49.480;8.512;2023-01-19T00:31:48;-0.60;99.90
44117;DHT22;29781;49.480;8.512;2023-01-19T00:34:14;-0.60;99.90
44117;DHT22;29781;49.480;8.512;2023-01-19T00:36:40;-0.60;99.90
44117;DHT22;29781;49.480;8.512;2023-01-19T00:39:05;-0.60;99.90
44117;DHT22;29781;49.480;8.512;2023-01-19T00:41:31;-0.60;99.90
44117;DHT22;29781;49.480;8.512;2023-01-19T00:44:15;-0.50;99.90
44117;DHT22;29781;49.480;8.512;2023-01-19T00:46:41;-0.50;99.90
44117;DHT22;29781;49.480;8.512;2023-01-19T00:49:06;-0.40;99.90
44117;DHT22;29781;49.480;8.512;2023-01-19T00:51:32;-0.30;99.90
44117;DHT22;29781;49.480;8.512;2023-01-19T00:53:57;-0.30;99.90
44117;DHT22;29781;49.480;8.512;2023-01-19T00:56:32;-0.50;99.90
44117;DHT22;29781;49.480;8.512;2023-01-19T00:58:57;-0.50;99.90
44117;DHT22;29781;49.480;8.512;2023-01-19T01:01:23;-0.60;99.90
44117;DHT22;29781;49.480;8.512;2023-01-19T01:03:48;-0.60;99.90
44117;DHT22;29781;49.480;8.512;2023-01-19T01:06:14;-0.50;99.90
44117;DHT22;29781;49.480;8.512;2023-01-19T01:08:39;-0.50;99.90
44117;DHT22;29781;49.480;8.512;2023-01-19T01:11:05;-0.40;99.90
44117;DHT22;29781;49.480;8.512;2023-01-19T01:13:30;-0.50;99.90
44117;DHT22;29781;49.480;8.512;2023-01-19T01:15:56;-0.40;99.90
44117;DHT22;29781;49.480;8.512;2023-01-19T01:18:22;-0.30;99.90
44117;DHT22;29781;49.480;8.512;2023-01-19T01:20:47;-0.30;99.90
44117;DHT22;29781;49.480;8.512;2023-01-19T01:23:13;-0.30;99.90
44117;DHT22;29781;49.480;8.512;2023-01-19T01:25:39;-0.10;99.90
44117;DHT22;29781;49.480;8.512;2023-01-19T01:28:05;-0.10;99.90
44117;DHT22;29781;49.480;8.512;2023-01-19T01:30:33;-0.10;99.90
44117;DHT22;29781;49.480;8.512;2023-01-19T01:32:58;-0.10;99.90
44117;DHT22;29781;49.480;8.512;2023-01-19T01:35:24;-0.10;99.90
44117;DHT22;29781;49.480;8.512;2023-01-19T01:37:49;-0.10;99.90
44117;DHT22;29781;49.480;8.512;2023-01-19T01:40:16;-0.10;99.90
44117;DHT22;29781;49.480;8.512;2023-01-19T01:42:41;0.00;99.90
44117;DHT22;29781;49.480;8.512;2023-01-19T01:47:51;-0.30;99.90
44117;DHT22;29781;49.480;8.512;2023-01-19T01:50:19;-0.20;99.90
44117;DHT22;29781;49.480;8.512;2023-01-19T01:52:46;-0.10;99.90
44117;DHT22;29781;49.480;8.512;2023-01-19T01:55:13;-0.10;99.90
44117;DHT22;29781;49.480;8.512;2023-01-19T01:57:40;-0.10;99.90
44117;DHT22;29781;49.480;8.512;2023-01-19T02:00:07;-0.10;99.90
44117;DHT22;29781;49.480;8.512;2023-01-19T02:02:33;0.00;99.90
44117;DHT22;29781;49.480;8.512;2023-01-19T02:05:28;0.00;99.90
44117;DHT22;29781;49.480;8.512;2023-01-19T02:07:58;-0.10;99.90
44117;DHT22;29781;49.480;8.512;2023-01-19T02:10:44;-0.20;99.90
44117;DHT22;29781;49.480;8.512;2023-01-19T02:13:29;-0.30;99.90
44117;DHT22;29781;49.480;8.512;2023-01-19T02:15:56;-0.40;99.90
44117;DHT22;29781;49.480;8.512;2023-01-19T02:18:23;-0.30;99.90
44117;DHT22;29781;49.480;8.512;2023-01-19T02:20:53;-0.30;99.90
44117;DHT22;29781;49.480;8.512;2023-01-19T02:23:32;-0.30;99.90
44117;DHT22;29781;49.480;8.512;2023-01-19T02:26:01;-0.40;99.90
44117;DHT22;29781;49.480;8.512;2023-01-19T02:28:27;-0.30;99.90
44117;DHT22;29781;49.480;8.512;2023-01-19T02:30:53;-0.30;99.90
44117;DHT22;29781;49.480;8.512;2023-01-19T02:33:19;-0.40;99.90
44117;DHT22;29781;49.480;8.512;2023-01-19T02:35:44;-0.40;99.90
44117;DHT22;29781;49.480;8.512;2023-01-19T02:38:11;-0.40;99.90
44117;DHT22;29781;49.480;8.512;2023-01-19T02:40:37;-0.30;99.90
44117;DHT22;29781;49.480;8.512;2023-01-19T02:43:05;-0.30;99.90
44117;DHT22;29781;49.480;8.512;2023-01-19T02:45:33;-0.30;99.90
44117;DHT22;29781;49.480;8.512;2023-01-19T02:47:58;-0.40;99.90
44117;DHT22;29781;49.480;8.512;2023-01-19T02:53:18;-0.40;99.90
44117;DHT22;29781;49.480;8.512;2023-01-19T02:56:05;-0.30;99.90
44117;DHT22;29781;49.480;8.512;2023-01-19T03:03:46;-0.30;99.90
44117;DHT22;29781;49.480;8.512;2023-01-19T03:08:46;-0.20;99.90
44117;DHT22;29781;49.480;8.512;2023-01-19T03:11:16;-0.30;99.90
44117;DHT22;29781;49.480;8.512;2023-01-19T03:13:52;-0.30;99.90
44117;DHT22;29781;49.480;8.512;2023-01-19T03:16:19;-0.30;99.90
44117;DHT22;29781;49.480;8.512;2023-01-19T03:18:48;-0.30;99.90
44117;DHT22;29781;49.480;8.512;2023-01-19T03:21:15;-0.30;99.90
44117;DHT22;29781;49.480;8.512;2023-01-19T03:23:44;-0.40;99.90
44117;DHT22;29781;49.480;8.512;2023-01-19T03:26:11;-0.40;99.90
44117;DHT22;29781;49.480;8.512;2023-01-19T03:28:39;-0.50;99.90
44117;DHT22;29781;49.480;8.512;2023-01-19T03:31:09;-0.30;99.90
44117;DHT22;29781;49.480;8.512;2023-01-19T03:33:37;-0.20;99.90
44117;DHT22;29781;49.480;8.512;2023-01-19T03:36:08;-0.10;99.90
44117;DHT22;29781;49.480;8.512;2023-01-19T03:38:36;-0.10;99.90
44117;DHT22;29781;49.480;8.512;2023-01-19T03:41:07;0.00;99.90
44117;DHT22;29781;49.480;8.512;2023-01-19T03:43:34;0.00;99.90
44117;DHT22;29781;49.480;8.512;2023-01-19T03:46:00;0.10;99.90
44117;DHT22;29781;49.480;8.512;2023-01-19T03:48:27;0.00;99.90
44117;DHT22;29781;49.480;8.512;2023-01-19T03:50:52;-0.10;99.90
44117;DHT22;29781;49.480;8.512;2023-01-19T03:53:19;-0.20;99.90
44117;DHT22;29781;49.480;8.512;2023-01-19T03:55:45;-0.30;99.90
44117;DHT22;29781;49.480;8.512;2023-01-19T03:58:12;-0.20;99.90
44117;DHT22;29781;49.480;8.512;2023-01-19T04:00:38;-0.10;99.90
44117;DHT22;29781;49.480;8.512;2023-01-19T04:03:04;0.10;99.90
44117;DHT22;29781;49.480;8.512;2023-01-19T04:05:29;0.20;99.90
44117;DHT22;29781;49.480;8.512;2023-01-19T04:07:55;0.40;99.90
44117;DHT22;29781;49.480;8.512;2023-01-19T04:10:21;0.40;99.90
44117;DHT22;29781;49.480;8.512;2023-01-19T04:12:46;0.40;99.90
44117;DHT22;29781;49.480;8.512;2023-01-19T04:15:12;0.30;99.90
44117;DHT22;29781;49.480;8.512;2023-01-19T04:17:37;0.30;99.90
44117;DHT22;29781;49.480;8.512;2023-01-19T04:20:03;0.10;99.90
44117;DHT22;29781;49.480;8.512;2023-01-19T04:22:29;0.10;99.90
44117;DHT22;29781;49.480;8.512;2023-01-19T04:24:54;0.00;99.90
44117;DHT22;29781;49.480;8.512;2023-01-19T04:27:20;0.00;99.90
44117;DHT22;29781;49.480;8.512;2023-01-19T04:29:45;0.00;99.90
44117;DHT22;29781;49.480;8.512;2023-01-19T04:32:14;-0.10;99.90
44117;DHT22;29781;49.480;8.512;2023-01-19T04:34:40;-0.10;99.90
44117;DHT22;29781;49.480;8.512;2023-01-19T04:37:05;-0.10;99.90
44117;DHT22;29781;49.480;8.512;2023-01-19T04:39:33;-0.10;99.90
44117;DHT22;29781;49.480;8.512;2023-01-19T04:41:58;-0.10;99.90
44117;DHT22;29781;49.480;8.512;2023-01-19T04:44:25;-0.20;99.90
44117;DHT22;29781;49.480;8.512;2023-01-19T04:46:51;-0.20;99.90
44117;DHT22;29781;49.480;8.512;2023-01-19T04:49:17;-0.20;99.90
44117;DHT22;29781;49.480;8.512;2023-01-19T04:51:42;-0.30;99.90
44117;DHT22;29781;49.480;8.512;2023-01-19T04:54:08;-0.30;99.90
44117;DHT22;29781;49.480;8.512;2023-01-19T04:56:33;-0.30;99.90
44117;DHT22;29781;49.480;8.512;2023-01-19T04:58:59;-0.40;99.90
44117;DHT22;29781;49.480;8.512;2023-01-19T05:01:25;-0.20;99.90
44117;DHT22;29781;49.480;8.512;2023-01-19T05:03:50;-0.20;99.90
44117;DHT22;29781;49.480;8.512;2023-01-19T05:06:16;-0.30;99.90
44117;DHT22;29781;49.480;8.512;2023-01-19T05:08:41;-0.20;99.90
44117;DHT22;29781;49.480;8.512;2023-01-19T05:11:07;-0.40;99.90
44117;DHT22;29781;49.480;8.512;2023-01-19T05:13:32;-0.50;99.90
44117;DHT22;29781;49.480;8.512;2023-01-19T05:15:58;-0.50;99.90
44117;DHT22;29781;49.480;8.512;2023-01-19T05:18:24;-0.50;99.90
44117;DHT22;29781;49.480;8.512;2023-01-19T05:20:49;-0.60;99.90
44117;DHT22;29781;49.480;8.512;2023-01-19T05:23:15;-0.70;99.90
44117;DHT22;29781;49.480;8.512;2023-01-19T05:25:41;-0.70;99.90
44117;DHT22;29781;49.480;8.512;2023-01-19T05:28:07;-0.70;99.90
44117;DHT22;29781;49.480;8.512;2023-01-19T05:30:32;-0.70;99.90
44117;DHT22;29781;49.480;8.512;2023-01-19T05:32:58;-0.70;99.90
44117;DHT22;29781;49.480;8.512;2023-01-19T05:35:23;-0.50;99.90
44117;DHT22;29781;49.480;8.512;2023-01-19T05:37:49;-0.40;99.90
44117;DHT22;29781;49.480;8.512;2023-01-19T05:40:15;-0.30;99.90
44117;DHT22;29781;49.480;8.512;2023-01-19T05:42:40;-0.30;99.90
44117;DHT22;29781;49.480;8.512;2023-01-19T05:45:06;-0.30;99.90
44117;DHT22;29781;49.480;8.512;2023-01-19T05:47:32;-0.40;99.90
44117;DHT22;29781;49.480;8.512;2023-01-19T05:49:57;-0.50;99.90
44117;DHT22;29781;49.480;8.512;2023-01-19T05:52:23;-0.60;99.90
44117;DHT22;29781;49.480;8.512;2023-01-19T05:54:49;-0.60;99.90
44117;DHT22;29781;49.480;8.512;2023-01-19T05:57:15;-0.60;99.90
44117;DHT22;29781;49.480;8.512;2023-01-19T05:59:41;-0.60;99.90
44117;DHT22;29781;49.480;8.512;2023-01-19T06:02:06;-0.60;99.90
44117;DHT22;29781;49.480;8.512;2023-01-19T06:04:32;-0.50;99.90
44117;DHT22;29781;49.480;8.512;2023-01-19T06:06:58;-0.40;99.90
44117;DHT22;29781;49.480;8.512;2023-01-19T06:09:23;-0.50;99.90
44117;DHT22;29781;49.480;8.512;2023-01-19T06:11:49;-0.40;99.90
44117;DHT22;29781;49.480;8.512;2023-01-19T06:14:15;-0.50;99.90
44117;DHT22;29781;49.480;8.512;2023-01-19T06:16:40;-0.50;99.90
44117;DHT22;29781;49.480;8.512;2023-01-19T06:19:06;-0.40;99.90
44117;DHT22;29781;49.480;8.512;2023-01-19T06:21:32;-0.30;99.90
44117;DHT22;29781;49.480;8.512;2023-01-19T06:23:58;-0.20;99.90
44117;DHT22;29781;49.480;8.512;2023-01-19T06:26:24;-0.20;99.90
44117;DHT22;29781;49.480;8.512;2023-01-19T06:28:50;-0.30;99.90
44117;DHT22;29781;49.480;8.512;2023-01-19T06:31:16;-0.20;99.90
44117;DHT22;29781;49.480;8.512;2023-01-19T06:33:41;-0.20;99.90
44117;DHT22;29781;49.480;8.512;2023-01-19T06:36:07;-0.20;99.90
44117;DHT22;29781;49.480;8.512;2023-01-19T06:38:32;-0.30;99.90
44117;DHT22;29781;49.480;8.512;2023-01-19T06:40:58;-0.40;99.90
44117;DHT22;29781;49.480;8.512;2023-01-19T06:43:24;-0.40;99.90
44117;DHT22;29781;49.480;8.512;2023-01-19T06:45:50;-0.50;99.90
44117;DHT22;29781;49.480;8.512;2023-01-19T06:48:16;-0.40;99.90
44117;DHT22;29781;49.480;8.512;2023-01-19T06:50:43;-0.30;99.90
44117;DHT22;29781;49.480;8.512;2023-01-19T06:53:08;-0.30;99.90
44117;DHT22;29781;49.480;8.512;2023-01-19T06:55:34;-0.20;99.90
44117;DHT22;29781;49.480;8.512;2023-01-19T06:58:00;-0.10;99.90
44117;DHT22;29781;49.480;8.512;2023-01-19T07:00:26;-0.10;99.90
44117;DHT22;29781;49.480;8.512;2023-01-19T07:02:51;-0.10;99.90
44117;DHT22;29781;49.480;8.512;2023-01-19T07:05:17;-0.10;99.90
44117;DHT22;29781;49.480;8.512;2023-01-19T07:07:43;0.00;99.90
44117;DHT22;29781;49.480;8.512;2023-01-19T07:10:10;0.00;99.90
44117;DHT22;29781;49.480;8.512;2023-01-19T07:12:36;0.10;99.90
44117;DHT22;29781;49.480;8.512;2023-01-19T07:15:02;0.20;99.90
44117;DHT22;29781;49.480;8.512;2023-01-19T07:17:28;0.30;99.90
44117;DHT22;29781;49.480;8.512;2023-01-19T07:19:53;0.40;99.90
44117;DHT22;29781;49.480;8.512;2023-01-19T07:22:19;0.40;99.90
44117;DHT22;29781;49.480;8.512;2023-01-19T07:24:44;0.40;99.90
44117;DHT22;29781;49.480;8.512;2023-01-19T07:27:10;0.50;99.90
44117;DHT22;29781;49.480;8.512;2023-01-19T07:29:36;0.40;99.90
44117;DHT22;29781;49.480;8.512;2023-01-19T07:32:01;0.40;99.90
44117;DHT22;29781;49.480;8.512;2023-01-19T07:34:27;0.40;99.90
44117;DHT22;29781;49.480;8.512;2023-01-19T07:36:54;0.50;99.90
44117;DHT22;29781;49.480;8.512;2023-01-19T07:39:19;0.50;99.90
44117;DHT22;29781;49.480;8.512;2023-01-19T07:41:46;0.50;99.90
44117;DHT22;29781;49.480;8.512;2023-01-19T07:44:12;0.50;99.90
44117;DHT22;29781;49.480;8.512;2023-01-19T07:46:37;0.50;99.90
44117;DHT22;29781;49.480;8.512;2023-01-19T07:49:03;0.60;99.90
44117;DHT22;29781;49.480;8.512;2023-01-19T07:51:29;0.70;99.90
44117;DHT22;29781;49.480;8.512;2023-01-19T07:53:54;0.70;99.90
44117;DHT22;29781;49.480;8.512;2023-01-19T07:56:19;0.70;99.90
44117;DHT22;29781;49.480;8.512;2023-01-19T07:58:46;0.80;99.90
44117;DHT22;29781;49.480;8.512;2023-01-19T08:01:14;0.90;99.90
44117;DHT22;29781;49.480;8.512;2023-01-19T08:03:39;0.90;99.90
44117;DHT22;29781;49.480;8.512;2023-01-19T08:06:05;1.10;99.90
44117;DHT22;29781;49.480;8.512;2023-01-19T08:08:31;1.10;99.90
44117;DHT22;29781;49.480;8.512;2023-01-19T08:10:57;1.10;99.90
44117;DHT22;29781;49.480;8.512;2023-01-19T08:13:23;1.10;99.90
44117;DHT22;29781;49.480;8.512;2023-01-19T08:15:49;1.10;99.90
44117;DHT22;29781;49.480;8.512;2023-01-19T08:18:15;1.10;99.90
44117;DHT22;29781;49.480;8.512;2023-01-19T08:20:41;1.10;99.90
44117;DHT22;29781;49.480;8.512;2023-01-19T08:23:07;1.20;99.90
44117;DHT22;29781;49.480;8.512;2023-01-19T08:25:38;1.20;99.90
44117;DHT22;29781;49.480;8.512;2023-01-19T08:28:06;1.20;99.90
44117;DHT22;29781;49.480;8.512;2023-01-19T08:30:32;1.10;99.90
44117;DHT22;29781;49.480;8.512;2023-01-19T08:32:58;1.10;99.90
44117;DHT22;29781;49.480;8.512;2023-01-19T08:35:33;1.10;99.90
44117;DHT22;29781;49.480;8.512;2023-01-19T08:37:59;1.10;99.90
44117;DHT22;29781;49.480;8.512;2023-01-19T08:40:29;1.10;99.90
44117;DHT22;29781;49.480;8.512;2023-01-19T08:43:01;1.10;99.90
44117;DHT22;29781;49.480;8.512;2023-01-19T08:45:35;1.20;99.90
44117;DHT22;29781;49.480;8.512;2023-01-19T08:48:01;1.20;99.90
44117;DHT22;29781;49.480;8.512;2023-01-19T08:50:27;1.30;99.90
44117;DHT22;29781;49.480;8.512;2023-01-19T08:52:59;1.40;99.90
44117;DHT22;29781;49.480;8.512;2023-01-19T08:55:25;1.30;99.90
44117;DHT22;29781;49.480;8.512;2023-01-19T08:57:51;1.30;99.90
44117;DHT22;29781;49.480;8.512;2023-01-19T09:00:17;1.40;99.90
44117;DHT22;29781;49.480;8.512;2023-01-19T09:02:43;1.40;99.90
44117;DHT22;29781;49.480;8.512;2023-01-19T09:05:08;1.30;99.90
44117;DHT22;29781;49.480;8.512;2023-01-19T09:07:34;1.30;99.90
44117;DHT22;29781;49.480;8.512;2023-01-19T09:10:02;1.50;99.90
44117;DHT22;29781;49.480;8.512;2023-01-19T09:12:27;1.60;99.90
44117;DHT22;29781;49.480;8.512;2023-01-19T09:14:53;1.60;99.90
44117;DHT22;29781;49.480;8.512;2023-01-19T09:17:18;1.70;99.90
44117;DHT22;29781;49.480;8.512;2023-01-19T09:19:44;1.80;99.90
44117;DHT22;29781;49.480;8.512;2023-01-19T09:22:09;1.90;99.90
44117;DHT22;29781;49.480;8.512;2023-01-19T09:24:35;2.20;99.90
44117;DHT22;29781;49.480;8.512;2023-01-19T09:27:01;3.90;99.90
44117;DHT22;29781;49.480;8.512;2023-01-19T09:29:26;2.20;99.90
44117;DHT22;29781;49.480;8.512;2023-01-19T09:31:52;2.10;99.90
44117;DHT22;29781;49.480;8.512;2023-01-19T09:34:17;2.00;99.90
44117;DHT22;29781;49.480;8.512;2023-01-19T09:36:43;2.10;99.90
44117;DHT22;29781;49.480;8.512;2023-01-19T09:39:10;1.90;99.90
44117;DHT22;29781;49.480;8.512;2023-01-19T09:41:35;2.00;99.90
44117;DHT22;29781;49.480;8.512;2023-01-19T09:44:03;1.90;99.90
44117;DHT22;29781;49.480;8.512;2023-01-19T09:48:55;2.10;99.90
44117;DHT22;29781;49.480;8.512;2023-01-19T09:51:23;2.20;99.90
44117;DHT22;29781;49.480;8.512;2023-01-19T09:53:50;2.10;99.90
44117;DHT22;29781;49.480;8.512;2023-01-19T09:56:18;2.00;99.90
44117;DHT22;29781;49.480;8.512;2023-01-19T09:58:44;2.00;99.90
44117;DHT22;29781;49.480;8.512;2023-01-19T10:01:30;2.00;99.90
44117;DHT22;29781;49.480;8.512;2023-01-19T10:06:35;2.30;99.90
44117;DHT22;29781;49.480;8.512;2023-01-19T10:09:22;2.40;99.90
44117;DHT22;29781;49.480;8.512;2023-01-19T10:12:08;2.60;99.90
44117;DHT22;29781;49.480;8.512;2023-01-19T10:14:41;3.10;99.90
44117;DHT22;29781;49.480;8.512;2023-01-19T10:17:34;3.80;99.90
44117;DHT22;29781;49.480;8.512;2023-01-19T10:20:03;4.50;99.90
44117;DHT22;29781;49.480;8.512;2023-01-19T10:22:33;4.80;99.90
44117;DHT22;29781;49.480;8.512;2023-01-19T10:24:59;4.40;99.90
44117;DHT22;29781;49.480;8.512;2023-01-19T10:27:27;4.10;99.90
44117;DHT22;29781;49.480;8.512;2023-01-19T10:29:53;3.90;99.90
44117;DHT22;29781;49.480;8.512;2023-01-19T10:32:21;3.50;99.90
44117;DHT22;29781;49.480;8.512;2023-01-19T10:34:48;3.20;99.90
44117;DHT22;29781;49.480;8.512;2023-01-19T10:39:44;3.30;99.90
44117;DHT22;29781;49.480;8.512;2023-01-19T10:42:11;3.30;99.90
44117;DHT22;29781;49.480;8.512;2023-01-19T10:44:37;3.40;99.90
44117;DHT22;29781;49.480;8.512;2023-01-19T10:47:03;3.60;99.90
44117;DHT22;29781;49.480;8.512;2023-01-19T10:52:01;3.80;99.90
44117;DHT22;29781;49.480;8.512;2023-01-19T10:54:28;3.80;99.90
44117;DHT22;29781;49.480;8.512;2023-01-19T10:56:56;3.80;99.90
44117;DHT22;29781;49.480;8.512;2023-01-19T10:59:32;3.80;99.90
44117;DHT22;29781;49.480;8.512;2023-01-19T11:02:13;3.70;99.90
44117;DHT22;29781;49.480;8.512;2023-01-19T11:04:40;3.60;99.90
44117;DHT22;29781;49.480;8.512;2023-01-19T11:07:13;3.50;99.90
44117;DHT22;29781;49.480;8.512;2023-01-19T11:09:39;3.40;99.90
44117;DHT22;29781;49.480;8.512;2023-01-19T11:12:13;3.30;99.90
44117;DHT22;29781;49.480;8.512;2023-01-19T11:14:39;3.30;99.90
44117;DHT22;29781;49.480;8.512;2023-01-19T11:17:05;3.20;99.90
44117;DHT22;29781;49.480;8.512;2023-01-19T11:19:38;3.30;99.90
44117;DHT22;29781;49.480;8.512;2023-01-19T11:22:14;3.30;99.90
44117;DHT22;29781;49.480;8.512;2023-01-19T11:24:45;3.40;99.90
44117;DHT22;29781;49.480;8.512;2023-01-19T11:27:11;3.60;99.90
44117;DHT22;29781;49.480;8.512;2023-01-19T11:29:44;3.90;99.90
44117;DHT22;29781;49.480;8.512;2023-01-19T11:32:11;3.90;99.90
44117;DHT22;29781;49.480;8.512;2023-01-19T11:34:42;4.00;99.90
44117;DHT22;29781;49.480;8.512;2023-01-19T11:39:48;4.10;99.90
44117;DHT22;29781;49.480;8.512;2023-01-19T11:42:14;4.10;99.90
44117;DHT22;29781;49.480;8.512;2023-01-19T11:45:01;3.90;99.90
44117;DHT22;29781;49.480;8.512;2023-01-19T11:47:27;3.80;99.90
44117;DHT22;29781;49.480;8.512;2023-01-19T11:50:03;3.80;99.90
44117;DHT22;29781;49.480;8.512;2023-01-19T11:52:31;3.60;99.90
44117;DHT22;29781;49.480;8.512;2023-01-19T11:57:44;3.50;99.90
44117;DHT22;29781;49.480;8.512;2023-01-19T12:00:19;3.50;99.90
44117;DHT22;29781;49.480;8.512;2023-01-19T12:02:46;3.40;99.90
44117;DHT22;29781;49.480;8.512;2023-01-19T12:05:15;3.40;99.90
44117;DHT22;29781;49.480;8.512;2023-01-19T12:07:42;3.40;99.90
44117;DHT22;29781;49.480;8.512;2023-01-19T12:12:37;3.40;99.90
44117;DHT22;29781;49.480;8.512;2023-01-19T12:15:10;3.40;99.90
44117;DHT22;29781;49.480;8.512;2023-01-19T12:17:41;3.40;99.90
44117;DHT22;29781;49.480;8.512;2023-01-19T12:28:10;3.40;99.90
44117;DHT22;29781;49.480;8.512;2023-01-19T12:30:36;3.50;99.90
44117;DHT22;29781;49.480;8.512;2023-01-19T12:35:59;3.40;99.90
44117;DHT22;29781;49.480;8.512;2023-01-19T12:38:43;3.40;99.90
44117;DHT22;29781;49.480;8.512;2023-01-19T12:49:04;3.50;99.90
44117;DHT22;29781;49.480;8.512;2023-01-19T12:51:31;3.60;99.90
44117;DHT22;29781;49.480;8.512;2023-01-19T12:53:57;3.60;99.90
44117;DHT22;29781;49.480;8.512;2023-01-19T12:56:28;3.60;99.90
44117;DHT22;29781;49.480;8.512;2023-01-19T12:58:55;3.70;99.90
44117;DHT22;29781;49.480;8.512;2023-01-19T13:01:21;3.70;99.90
44117;DHT22;29781;49.480;8.512;2023-01-19T13:09:40;3.60;99.90
44117;DHT22;29781;49.480;8.512;2023-01-19T13:14:41;3.60;99.90
44117;DHT22;29781;49.480;8.512;2023-01-19T13:19:41;3.70;99.90
44117;DHT22;29781;49.480;8.512;2023-01-19T13:25:07;3.60;99.90
44117;DHT22;29781;49.480;8.512;2023-01-19T13:27:34;3.70;99.90
44117;DHT22;29781;49.480;8.512;2023-01-19T13:30:00;3.70;99.90
44117;DHT22;29781;49.480;8.512;2023-01-19T13:32:25;3.80;99.90
44117;DHT22;29781;49.480;8.512;2023-01-19T13:34:52;3.80;99.90
44117;DHT22;29781;49.480;8.512;2023-01-19T13:37:19;3.80;99.90
44117;DHT22;29781;49.480;8.512;2023-01-19T13:39:46;3.80;99.90
44117;DHT22;29781;49.480;8.512;2023-01-19T13:42:32;3.80;99.90
44117;DHT22;29781;49.480;8.512;2023-01-19T13:45:00;3.80;99.90
44117;DHT22;29781;49.480;8.512;2023-01-19T13:50:01;3.70;99.90
44117;DHT22;29781;49.480;8.512;2023-01-19T13:52:27;3.70;99.90
44117;DHT22;29781;49.480;8.512;2023-01-19T13:54:58;3.60;99.90
44117;DHT22;29781;49.480;8.512;2023-01-19T13:57:38;3.60;99.90
44117;DHT22;29781;49.480;8.512;2023-01-19T14:10:25;3.50;99.90
44117;DHT22;29781;49.480;8.512;2023-01-19T14:12:58;3.50;99.90
44117;DHT22;29781;49.480;8.512;2023-01-19T14:15:24;3.60;99.90
44117;DHT22;29781;49.480;8.512;2023-01-19T14:18:09;3.60;99.90
44117;DHT22;29781;49.480;8.512;2023-01-19T14:20:36;3.60;99.90
44117;DHT22;29781;49.480;8.512;2023-01-19T14:23:02;3.70;99.90
44117;DHT22;29781;49.480;8.512;2023-01-19T14:25:34;3.70;99.90
44117;DHT22;29781;49.480;8.512;2023-01-19T14:30:54;3.60;99.90
44117;DHT22;29781;49.480;8.512;2023-01-19T14:36:08;3.70;99.90
44117;DHT22;29781;49.480;8.512;2023-01-19T14:38:33;3.70;99.90
44117;DHT22;29781;49.480;8.512;2023-01-19T14:40:59;3.70;99.90
44117;DHT22;29781;49.480;8.512;2023-01-19T14:43:24;3.70;99.90
44117;DHT22;29781;49.480;8.512;2023-01-19T14:45:52;3.60;99.90
44117;DHT22;29781;49.480;8.512;2023-01-19T14:48:19;3.70;99.90
44117;DHT22;29781;49.480;8.512;2023-01-19T14:50:46;3.80;99.90
44117;DHT22;29781;49.480;8.512;2023-01-19T14:53:16;3.70;99.90
44117;DHT22;29781;49.480;8.512;2023-01-19T14:58:17;3.70;99.90
44117;DHT22;29781;49.480;8.512;2023-01-19T15:00:44;3.70;99.90
44117;DHT22;29781;49.480;8.512;2023-01-19T15:03:10;3.60;99.90
44117;DHT22;29781;49.480;8.512;2023-01-19T15:05:36;3.70;99.90
44117;DHT22;29781;49.480;8.512;2023-01-19T15:08:02;3.60;99.90
44117;DHT22;29781;49.480;8.512;2023-01-19T15:10:28;3.60;99.90
44117;DHT22;29781;49.480;8.512;2023-01-19T15:12:54;3.60;99.90
44117;DHT22;29781;49.480;8.512;2023-01-19T15:15:23;3.60;99.90
44117;DHT22;29781;49.480;8.512;2023-01-19T15:17:50;3.60;99.90
44117;DHT22;29781;49.480;8.512;2023-01-19T15:20:17;3.60;99.90
44117;DHT22;29781;49.480;8.512;2023-01-19T15:22:43;3.60;99.90
44117;DHT22;29781;49.480;8.512;2023-01-19T15:25:13;3.50;99.90
44117;DHT22;29781;49.480;8.512;2023-01-19T15:27:39;3.50;99.90
44117;DHT22;29781;49.480;8.512;2023-01-19T15:30:11;3.50;99.90
44117;DHT22;29781;49.480;8.512;2023-01-19T15:32:37;3.60;99.90
44117;DHT22;29781;49.480;8.512;2023-01-19T15:35:15;3.60;99.90
44117;DHT22;29781;49.480;8.512;2023-01-19T15:37:41;3.60;99.90
44117;DHT22;29781;49.480;8.512;2023-01-19T15:40:07;3.70;99.90
44117;DHT22;29781;49.480;8.512;2023-01-19T15:42:33;3.60;99.90
44117;DHT22;29781;49.480;8.512;2023-01-19T15:44:59;3.70;99.90
44117;DHT22;29781;49.480;8.512;2023-01-19T15:47:24;3.70;99.90
44117;DHT22;29781;49.480;8.512;2023-01-19T15:49:50;3.60;99.90
44117;DHT22;29781;49.480;8.512;2023-01-19T15:52:15;3.60;99.90
44117;DHT22;29781;49.480;8.512;2023-01-19T15:54:41;3.60;99.90
44117;DHT22;29781;49.480;8.512;2023-01-19T15:57:07;3.60;99.90
44117;DHT22;29781;49.480;8.512;2023-01-19T15:59:32;3.60;99.90
44117;DHT22;29781;49.480;8.512;2023-01-19T16:01:58;3.60;99.90
44117;DHT22;29781;49.480;8.512;2023-01-19T16:04:23;3.60;99.90
44117;DHT22;29781;49.480;8.512;2023-01-19T16:06:49;3.50;99.90
44117;DHT22;29781;49.480;8.512;2023-01-19T16:09:14;3.50;99.90
44117;DHT22;29781;49.480;8.512;2023-01-19T16:11:43;3.50;99.90
44117;DHT22;29781;49.480;8.512;2023-01-19T16:14:09;3.60;99.90
44117;DHT22;29781;49.480;8.512;2023-01-19T16:16:34;3.60;99.90
44117;DHT22;29781;49.480;8.512;2023-01-19T16:19:00;3.50;99.90
44117;DHT22;29781;49.480;8.512;2023-01-19T16:21:26;3.50;99.90
44117;DHT22;29781;49.480;8.512;2023-01-19T16:23:51;3.50;99.90
44117;DHT22;29781;49.480;8.512;2023-01-19T16:26:35;3.60;99.90
44117;DHT22;29781;49.480;8.512;2023-01-19T16:29:02;3.50;99.90
44117;DHT22;29781;49.480;8.512;2023-01-19T16:31:32;3.50;99.90
44117;DHT22;29781;49.480;8.512;2023-01-19T16:33:57;3.50;99.90
44117;DHT22;29781;49.480;8.512;2023-01-19T16:36:27;3.40;99.90
44117;DHT22;29781;49.480;8.512;2023-01-19T16:38:53;3.30;99.90
44117;DHT22;29781;49.480;8.512;2023-01-19T16:41:22;3.10;99.90
44117;DHT22;29781;49.480;8.512;2023-01-19T16:43:53;3.10;99.90
44117;DHT22;29781;49.480;8.512;2023-01-19T16:46:24;3.00;99.90
44117;DHT22;29781;49.480;8.512;2023-01-19T16:48:50;2.90;99.90
44117;DHT22;29781;49.480;8.512;2023-01-19T16:51:16;3.00;99.90
44117;DHT22;29781;49.480;8.512;2023-01-19T16:53:41;2.90;99.90
44117;DHT22;29781;49.480;8.512;2023-01-19T16:56:08;2.80;99.90
44117;DHT22;29781;49.480;8.512;2023-01-19T16:58:34;2.80;99.90
44117;DHT22;29781;49.480;8.512;2023-01-19T17:01:16;2.80;99.90
44117;DHT22;29781;49.480;8.512;2023-01-19T17:03:42;2.70;99.90
44117;DHT22;29781;49.480;8.512;2023-01-19T17:06:08;2.70;99.90